»·PEaware :: N716TH KSNA-KSAN

N716TH :: KSNA-KSAN

FLIGHT INFORMATION

Flight Status: Arrived
Operator: Privately registered:
United States
More flights under this callsign
Pilot: Danny R. (17997)
Aircraft: CESSNA 172 SKYHAWK
(C172)
More flights by this aircraft type
Origin: KSNA John Wayne-Orange Co
United States
Destination: KSAN San Diego Intl-Lindbergh
United States
More flights between these airports :: More routes between these airports
Route: +OCN
File this flight plan on PilotEdge
Remarks:
Altitude:
(Current/Filed)
5,500ft
Speed:
(Current/Filed)
100kts
Departed: 21-Feb-18 11:51 AM
Arrived: 21-Feb-18 12:38 PM
Distance/Time
Traveled:
66nm/0:46
Distance/Time
To Go:
Arrived

Flight Plot

Page will automatically refresh every two minutes.

Flight plan parsing failed; only flown route is shown


Map Options




Map Legend


Flown Route
Filed Route
Departure Airport
Arrival Airport
Navaid (VOR, NDB)
Fix

Horizontal Profiles

Position Reports

Time Latitude Longitude Heading Altitude Ground
Speed
21-Feb-18 11:02 33.667674 -117.871497 41 60ft 0kts
21-Feb-18 11:03 33.667674 -117.871497 41 60ft 0kts
21-Feb-18 11:04 33.667674 -117.871497 41 60ft 0kts
21-Feb-18 11:05 33.667674 -117.871497 41 60ft 0kts
21-Feb-18 11:06 33.667674 -117.871497 41 60ft 0kts
21-Feb-18 11:07 33.667674 -117.871497 41 60ft 0kts
21-Feb-18 11:08 33.667674 -117.871497 41 60ft 0kts
21-Feb-18 11:09 33.667674 -117.871497 41 60ft 0kts
21-Feb-18 11:10 33.667674 -117.871497 41 60ft 0kts
21-Feb-18 11:11 33.667674 -117.871497 41 60ft 0kts
21-Feb-18 11:12 33.667674 -117.871497 41 60ft 0kts
21-Feb-18 11:13 33.667674 -117.871497 41 60ft 0kts
21-Feb-18 11:14 33.667674 -117.871497 41 60ft 0kts
21-Feb-18 11:15 33.667674 -117.871497 41 60ft 0kts
21-Feb-18 11:16 33.667674 -117.871497 41 60ft 0kts
21-Feb-18 11:17 33.667674 -117.871497 41 60ft 0kts
21-Feb-18 11:18 33.667674 -117.871497 41 60ft 0kts
21-Feb-18 11:19 33.667674 -117.871497 41 60ft 0kts
21-Feb-18 11:20 33.667674 -117.871497 41 60ft 0kts
21-Feb-18 11:21 33.667674 -117.871497 41 60ft 0kts
21-Feb-18 11:22 33.667674 -117.871497 41 60ft 0kts
21-Feb-18 11:23 33.667674 -117.871497 41 60ft 0kts
21-Feb-18 11:24 33.667674 -117.871497 41 60ft 0kts
21-Feb-18 11:25 33.667674 -117.871497 41 60ft 0kts
21-Feb-18 11:26 33.667674 -117.871497 41 60ft 0kts
21-Feb-18 11:27 33.667674 -117.871497 41 60ft 0kts
21-Feb-18 11:28 33.667674 -117.871497 41 60ft 0kts
21-Feb-18 11:29 33.667674 -117.871497 41 60ft 0kts
21-Feb-18 11:30 33.667674 -117.871497 41 60ft 0kts
21-Feb-18 11:31 33.667674 -117.871497 41 60ft 0kts
21-Feb-18 11:32 33.667674 -117.871497 41 60ft 0kts
21-Feb-18 11:33 33.667674 -117.871497 41 60ft 0kts
21-Feb-18 11:34 33.667674 -117.871497 41 60ft 0kts
21-Feb-18 11:35 33.667674 -117.871497 41 60ft 0kts
21-Feb-18 11:36 33.667674 -117.871497 41 60ft 0kts
21-Feb-18 11:37 33.667674 -117.871497 41 60ft 0kts
21-Feb-18 11:38 33.667674 -117.871497 41 60ft 0kts
21-Feb-18 11:39 33.667674 -117.871497 41 60ft 0kts
21-Feb-18 11:40 33.667674 -117.871497 41 60ft 0kts
21-Feb-18 11:41 33.667674 -117.871497 41 60ft 0kts
21-Feb-18 11:42 33.667674 -117.871497 41 60ft 0kts
21-Feb-18 11:43 33.667674 -117.871497 41 60ft 0kts
21-Feb-18 11:44 33.667674 -117.871497 41 60ft 0kts
21-Feb-18 11:45 33.667674 -117.871497 41 60ft 0kts
21-Feb-18 11:46 33.667674 -117.871497 41 60ft 0kts
21-Feb-18 11:47 33.667674 -117.871497 41 60ft 0kts
21-Feb-18 11:48 33.667674 -117.871497 41 60ft 0kts
21-Feb-18 11:49 33.667674 -117.871497 41 60ft 0kts
21-Feb-18 11:50 33.668714 -117.871313 33 60ft 14kts
21-Feb-18 11:51 33.672739 -117.867715 33 60ft 12kts
21-Feb-18 11:52 33.673335 -117.867921 185 60ft 0kts
21-Feb-18 11:53 33.673336 -117.867921 186 60ft 0kts
21-Feb-18 11:54 33.673270 -117.867921 174 60ft 2kts
21-Feb-18 11:55 33.675328 -117.866317 25 60ft 23kts
21-Feb-18 11:56 33.679745 -117.863530 28 60ft 9kts
21-Feb-18 11:57 33.680032 -117.863683 294 60ft 0kts
21-Feb-18 11:58 33.677052 -117.866099 207 85ft 63kts
21-Feb-18 11:59 33.660459 -117.877236 212 842ft 77kts
21-Feb-18 12:00 33.642433 -117.886298 183 1719ft 69kts
21-Feb-18 12:01 33.626313 -117.875449 133 2494ft 77kts
21-Feb-18 12:02 33.612423 -117.856542 135 3223ft 78kts
21-Feb-18 12:03 33.595405 -117.833565 134 3531ft 113kts
21-Feb-18 12:04 33.577789 -117.807035 129 4214ft 95kts
21-Feb-18 12:05 33.556800 -117.787333 139 4678ft 98kts
21-Feb-18 12:06 33.537088 -117.764152 139 5137ft 101kts
21-Feb-18 12:07 33.516786 -117.740322 139 5506ft 108kts
21-Feb-18 12:08 33.495264 -117.715095 139 5511ft 104kts
21-Feb-18 12:09 33.474870 -117.691176 140 5504ft 101kts
21-Feb-18 12:10 33.455012 -117.667907 139 5503ft 100kts
21-Feb-18 12:11 33.435375 -117.644911 139 5501ft 98kts
21-Feb-18 12:12 33.416894 -117.623272 139 5490ft 88kts
21-Feb-18 12:13 33.399607 -117.603056 139 5488ft 86kts
21-Feb-18 12:14 33.382992 -117.583625 137 5515ft 84kts
21-Feb-18 12:15 33.371127 -117.559198 121 5514ft 91kts
21-Feb-18 12:16 33.352753 -117.537914 139 5397ft 101kts
21-Feb-18 12:17 33.331110 -117.514608 139 5127ft 107kts
21-Feb-18 12:18 33.308935 -117.490746 139 4801ft 112kts
21-Feb-18 12:19 33.285490 -117.465529 139 4404ft 115kts
21-Feb-18 12:20 33.261876 -117.440146 139 4011ft 115kts
21-Feb-18 12:21 33.238225 -117.414777 139 3620ft 115kts
21-Feb-18 12:22 33.214944 -117.391841 168 3489ft 106kts
21-Feb-18 12:23 33.187003 -117.396659 182 3486ft 101kts
21-Feb-18 12:24 33.159947 -117.388077 162 3472ft 101kts
21-Feb-18 12:25 33.133420 -117.378452 162 3470ft 101kts
21-Feb-18 12:26 33.105996 -117.368499 162 3479ft 108kts
21-Feb-18 12:27 33.079388 -117.358857 162 3477ft 108kts
21-Feb-18 12:28 33.050902 -117.348540 163 3483ft 108kts
21-Feb-18 12:29 33.022407 -117.338232 163 3486ft 108kts
21-Feb-18 12:30 32.993700 -117.327846 161 3474ft 110kts
21-Feb-18 12:31 32.964513 -117.317299 160 3482ft 109kts
21-Feb-18 12:32 32.936425 -117.307136 162 3477ft 105kts
21-Feb-18 12:33 32.909262 -117.297239 163 3466ft 98kts
21-Feb-18 12:34 32.885524 -117.288504 162 3499ft 88kts
21-Feb-18 12:35 32.862290 -117.279503 162 3499ft 88kts
21-Feb-18 12:36 32.838752 -117.269838 161 3503ft 91kts
21-Feb-18 12:37 32.815249 -117.259871 161 3343ft 94kts
21-Feb-18 12:38 32.795191 -117.240730 143 3053ft 99kts
21-Feb-18 12:39 32.773715 -117.220992 141 2608ft 102kts
21-Feb-18 12:40 32.754494 -117.194516 117 1213ft 124kts
21-Feb-18 12:41 32.747308 -117.164835 102 753ft 69kts
21-Feb-18 12:42 32.738607 -117.153131 193 734ft 54kts
21-Feb-18 12:43 32.727123 -117.161681 275 531ft 68kts
21-Feb-18 12:44 32.731303 -117.180493 278 44ft 53kts
21-Feb-18 12:45 32.733982 -117.188045 22 21ft 0kts
21-Feb-18 12:46 32.734052 -117.187027 109 21ft 15kts
21-Feb-18 12:47 32.732363 -117.179981 106 21ft 18kts
21-Feb-18 12:48 32.732399 -117.176636 304 21ft 11kts
21-Feb-18 12:49 32.732257 -117.177217 199 21ft 0kts
21-Feb-18 12:50 32.732257 -117.177217 199 21ft 0kts
21-Feb-18 12:51 32.732257 -117.177217 199 21ft 0kts
21-Feb-18 12:52 32.732257 -117.177217 199 21ft 0kts
21-Feb-18 12:53 32.732257 -117.177217 199 21ft 0kts
21-Feb-18 12:54 32.732257 -117.177217 199 21ft 0kts
21-Feb-18 12:55 32.732257 -117.177217 199 21ft 0kts
21-Feb-18 12:56 32.732257 -117.177217 199 21ft 0kts
21-Feb-18 12:57 32.732257 -117.177217 199 21ft 0kts
21-Feb-18 12:58 32.732257 -117.177217 199 21ft 0kts
21-Feb-18 12:59 32.732257 -117.177217 199 21ft 0kts

Navigation Log

Ident Type
Flight plan parsing failed, navigation log unavailable